createdAt,value
2023-05-16T00:00:46.516Z,10.81
2023-05-16T00:03:13.349Z,11.02
2023-05-16T00:05:40.260Z,10.99
2023-05-16T00:08:06.836Z,10.96
2023-05-16T00:10:38.201Z,10.84
2023-05-16T00:13:07.149Z,10.77
2023-05-16T00:15:34.026Z,10.50
2023-05-16T00:18:02.717Z,10.51
2023-05-16T00:20:30.456Z,10.70
2023-05-16T00:23:01.171Z,10.72
2023-05-16T00:25:28.761Z,10.73
2023-05-16T00:27:55.541Z,10.72
2023-05-16T00:30:22.830Z,10.67
2023-05-16T00:32:49.659Z,10.61
2023-05-16T00:35:16.332Z,10.49
2023-05-16T00:37:43.993Z,10.22
2023-05-16T00:40:11.023Z,10.43
2023-05-16T00:42:38.880Z,10.12
2023-05-16T00:45:06.935Z,10.27
2023-05-16T00:47:33.988Z,10.35
2023-05-16T00:50:02.773Z,10.27
2023-05-16T00:52:29.846Z,10.11
2023-05-16T00:54:57.567Z,10.17
2023-05-16T00:57:24.870Z,9.83
2023-05-16T00:59:52.144Z,10.13
2023-05-16T01:02:18.863Z,10.01
2023-05-16T01:04:48.394Z,9.89
2023-05-16T01:07:15.260Z,9.99
2023-05-16T01:09:41.927Z,9.75
2023-05-16T01:12:27.392Z,9.92
2023-05-16T01:15:10.612Z,9.90
2023-05-16T01:18:03.668Z,9.89
2023-05-16T01:20:42.838Z,9.68
2023-05-16T01:23:41.566Z,9.80
2023-05-16T01:26:18.995Z,9.77
2023-05-16T01:28:47.280Z,9.83
2023-05-16T01:31:14.280Z,9.82
2023-05-16T01:33:40.910Z,9.80
2023-05-16T01:36:22.641Z,9.79
2023-05-16T01:39:09.444Z,9.47
2023-05-16T01:42:06.199Z,9.75
2023-05-16T01:44:52.566Z,9.62
2023-05-16T01:48:02.866Z,9.72
2023-05-16T01:50:37.744Z,9.70
2023-05-16T01:53:11.415Z,9.64
2023-05-16T01:55:51.522Z,9.52
2023-05-16T01:58:26.320Z,9.56
2023-05-16T02:00:54.416Z,9.72
2023-05-16T02:03:23.860Z,9.69
2023-05-16T02:05:51.482Z,9.58
2023-05-16T02:08:18.244Z,9.59
2023-05-16T02:10:51.644Z,9.41
2023-05-16T02:13:18.515Z,9.60
2023-05-16T02:16:19.515Z,9.57
2023-05-16T02:18:46.780Z,9.48
2023-05-16T02:21:13.447Z,9.48
2023-05-16T02:23:40.063Z,9.45
2023-05-16T02:26:24.924Z,9.34
2023-05-16T02:28:51.535Z,9.47
2023-05-16T02:31:28.529Z,9.49
2023-05-16T02:33:55.326Z,9.47
2023-05-16T02:36:35.962Z,9.21
2023-05-16T02:39:06.378Z,9.44
2023-05-16T02:41:33.322Z,9.41
2023-05-16T02:43:59.910Z,9.44
2023-05-16T02:46:31.746Z,9.46
2023-05-16T02:48:58.539Z,9.45
2023-05-16T02:51:27.368Z,9.41
2023-05-16T02:53:57.074Z,9.40
2023-05-16T02:56:23.825Z,9.39
2023-05-16T02:58:50.665Z,9.35
2023-05-16T03:01:17.753Z,9.32
2023-05-16T03:03:44.668Z,9.38
2023-05-16T03:06:11.519Z,9.35
2023-05-16T03:08:38.329Z,9.35
2023-05-16T03:11:05.648Z,9.23
2023-05-16T03:13:33.390Z,9.33
2023-05-16T03:16:00.767Z,9.30
2023-05-16T03:18:31.937Z,9.13
2023-05-16T03:21:00.156Z,9.17
2023-05-16T03:23:27.343Z,9.30
2023-05-16T03:25:54.346Z,9.29
2023-05-16T03:28:25.354Z,9.06
2023-05-16T03:30:51.997Z,9.28
2023-05-16T03:33:19.219Z,9.26
2023-05-16T03:35:46.825Z,9.24
2023-05-16T03:38:16.040Z,9.24
2023-05-16T03:40:42.770Z,9.23
2023-05-16T03:43:22.289Z,8.94
2023-05-16T03:45:50.152Z,9.23
2023-05-16T03:48:16.881Z,9.15
2023-05-16T03:50:43.576Z,9.16
2023-05-16T03:53:10.497Z,9.16
2023-05-16T03:55:46.829Z,9.05
2023-05-16T03:58:16.524Z,9.17
2023-05-16T04:00:42.996Z,9.21
2023-05-16T04:03:28.550Z,9.10
2023-05-16T04:05:57.897Z,8.80
2023-05-16T04:08:26.570Z,8.96
2023-05-16T04:10:53.518Z,8.79
2023-05-16T04:13:20.303Z,9.07
2023-05-16T04:15:47.096Z,9.06
2023-05-16T04:18:13.980Z,9.02
2023-05-16T04:20:43.027Z,8.76
2023-05-16T04:23:12.043Z,9.01
2023-05-16T04:25:42.475Z,9.03
2023-05-16T04:28:09.338Z,9.00
2023-05-16T04:30:36.262Z,9.02
2023-05-16T04:33:05.556Z,9.05
2023-05-16T04:35:34.224Z,9.10
2023-05-16T04:38:01.160Z,9.09
2023-05-16T04:40:29.549Z,9.09
2023-05-16T04:42:56.188Z,8.83
2023-05-16T04:45:27.885Z,9.15
2023-05-16T04:47:55.000Z,9.04
2023-05-16T04:50:24.456Z,9.12
2023-05-16T04:52:51.272Z,9.05
2023-05-16T04:55:18.065Z,9.13
2023-05-16T04:57:44.772Z,9.09
2023-05-16T05:00:13.460Z,9.07
2023-05-16T05:02:44.854Z,9.06
2023-05-16T05:05:11.710Z,9.12
2023-05-16T05:07:39.497Z,9.16
2023-05-16T05:10:07.884Z,9.25
2023-05-16T05:12:36.150Z,9.31
2023-05-16T05:15:03.748Z,9.33
2023-05-16T05:17:30.852Z,9.21
2023-05-16T05:20:00.005Z,9.45
2023-05-16T05:22:29.241Z,9.49
2023-05-16T05:24:55.945Z,9.43
2023-05-16T05:27:22.560Z,9.42
2023-05-16T05:29:49.159Z,9.48
2023-05-16T05:32:15.928Z,9.49
2023-05-16T05:34:44.654Z,9.53
2023-05-16T05:37:12.286Z,9.53
2023-05-16T05:39:40.383Z,9.55
2023-05-16T05:42:09.117Z,9.55
2023-05-16T05:44:38.050Z,9.53
2023-05-16T05:47:07.067Z,9.48
2023-05-16T05:49:36.032Z,9.54
2023-05-16T05:52:02.816Z,9.43
2023-05-16T05:54:30.390Z,9.45
2023-05-16T05:56:59.409Z,9.32
2023-05-16T05:59:29.519Z,9.45
2023-05-16T06:01:58.064Z,9.49
2023-05-16T06:04:25.152Z,9.48
2023-05-16T06:06:54.377Z,9.11
2023-05-16T06:09:26.000Z,9.48
2023-05-16T06:11:52.615Z,9.45
2023-05-16T06:14:20.288Z,9.48
2023-05-16T06:16:47.017Z,9.52
2023-05-16T06:19:16.215Z,9.56
2023-05-16T06:21:43.687Z,9.53
2023-05-16T06:24:12.309Z,9.60
2023-05-16T06:26:39.581Z,9.60
2023-05-16T06:29:06.279Z,9.59
2023-05-16T06:31:33.198Z,9.55
2023-05-16T06:33:59.931Z,9.50
2023-05-16T06:36:28.815Z,9.52
2023-05-16T06:38:55.689Z,9.51
2023-05-16T06:41:22.264Z,9.48
2023-05-16T06:43:49.539Z,9.48
2023-05-16T06:46:16.354Z,9.53
2023-05-16T06:48:43.108Z,9.61
2023-05-16T06:51:12.936Z,9.61
2023-05-16T06:53:40.040Z,9.64
2023-05-16T06:56:07.242Z,9.60
2023-05-16T06:58:35.215Z,9.70
2023-05-16T07:01:01.873Z,9.73
2023-05-16T07:03:29.140Z,9.79
2023-05-16T07:05:57.297Z,9.79
2023-05-16T07:08:26.009Z,9.84
2023-05-16T07:10:53.750Z,9.89
2023-05-16T07:13:20.765Z,10.00
2023-05-16T07:15:47.486Z,10.11
2023-05-16T07:18:14.352Z,10.09
2023-05-16T07:20:42.087Z,10.14
2023-05-16T07:23:12.211Z,10.15
2023-05-16T07:25:39.382Z,9.86
2023-05-16T07:28:06.045Z,9.96
2023-05-16T07:30:32.780Z,10.02
2023-05-16T07:32:59.479Z,9.90
2023-05-16T07:35:26.433Z,9.93
2023-05-16T07:37:53.516Z,9.96
2023-05-16T07:40:25.813Z,10.01
2023-05-16T07:42:52.568Z,10.17
2023-05-16T07:45:19.516Z,10.48
2023-05-16T07:47:46.415Z,10.68
2023-05-16T07:50:13.300Z,10.76
2023-05-16T07:52:40.023Z,10.64
2023-05-16T07:55:07.511Z,10.45
2023-05-16T07:57:34.568Z,10.12
2023-05-16T08:00:01.598Z,9.95
2023-05-16T08:02:31.282Z,9.92
2023-05-16T08:04:58.322Z,9.86
2023-05-16T08:07:25.082Z,9.85
2023-05-16T08:09:51.787Z,9.76
2023-05-16T08:12:18.607Z,10.01
2023-05-16T08:14:45.267Z,10.08
2023-05-16T08:17:12.184Z,10.22
2023-05-16T08:19:40.126Z,10.24
2023-05-16T08:22:09.290Z,10.22
2023-05-16T08:24:36.326Z,10.17
2023-05-16T08:27:03.046Z,10.37
2023-05-16T08:29:30.299Z,10.30
2023-05-16T08:31:57.145Z,10.53
2023-05-16T08:34:24.254Z,10.59
2023-05-16T08:36:50.977Z,10.78
2023-05-16T08:39:18.844Z,10.76
2023-05-16T08:41:46.630Z,12.14
2023-05-16T08:44:20.429Z,13.42
2023-05-16T08:46:53.100Z,13.83
2023-05-16T08:49:21.072Z,13.10
2023-05-16T08:51:49.415Z,13.17
2023-05-16T08:54:16.967Z,14.07
2023-05-16T08:56:45.178Z,13.65
2023-05-16T08:59:15.118Z,13.46
2023-05-16T09:01:42.530Z,13.17
2023-05-16T09:04:12.584Z,12.69
2023-05-16T09:06:39.326Z,12.25
2023-05-16T09:09:08.343Z,12.49
2023-05-16T09:11:37.048Z,12.65
2023-05-16T09:14:05.889Z,12.59
2023-05-16T09:16:32.784Z,13.13
2023-05-16T09:19:02.137Z,13.30
2023-05-16T09:21:33.272Z,13.45
2023-05-16T09:24:09.622Z,13.49
2023-05-16T09:26:38.499Z,13.15
2023-05-16T09:29:12.561Z,13.58
2023-05-16T09:31:40.764Z,14.10
2023-05-16T09:34:12.280Z,14.36
2023-05-16T09:36:43.498Z,13.61
2023-05-16T09:39:11.354Z,12.81
2023-05-16T09:41:38.103Z,12.74
2023-05-16T09:44:06.517Z,12.61
2023-05-16T09:46:35.001Z,13.07
2023-05-16T09:49:02.325Z,12.83
2023-05-16T09:51:28.999Z,12.74
2023-05-16T09:53:58.848Z,12.93
2023-05-16T09:56:25.577Z,13.39
2023-05-16T09:58:52.689Z,13.68
2023-05-16T10:01:19.635Z,13.92
2023-05-16T10:03:46.698Z,14.55
2023-05-16T10:06:13.841Z,13.78
2023-05-16T10:08:43.313Z,14.31
2023-05-16T10:11:11.022Z,13.82
2023-05-16T10:13:39.267Z,13.81
2023-05-16T10:16:12.790Z,14.14
2023-05-16T10:18:41.736Z,14.24
2023-05-16T10:21:13.630Z,14.39
2023-05-16T10:23:47.581Z,13.89
2023-05-16T10:26:16.210Z,13.85
2023-05-16T10:28:43.006Z,14.68
2023-05-16T10:31:11.763Z,14.52
2023-05-16T10:33:39.838Z,14.18
2023-05-16T10:36:11.184Z,14.19
2023-05-16T10:38:39.266Z,14.42
2023-05-16T10:41:07.923Z,14.48
2023-05-16T10:43:34.628Z,15.00
2023-05-16T10:46:11.103Z,14.45
2023-05-16T10:48:41.996Z,14.82
2023-05-16T10:51:24.006Z,15.10
2023-05-16T10:53:55.428Z,15.48
2023-05-16T10:56:27.153Z,15.36
2023-05-16T10:58:54.818Z,15.28
2023-05-16T11:01:34.930Z,14.89
2023-05-16T11:04:06.659Z,14.55
2023-05-16T11:06:43.343Z,14.18
2023-05-16T11:09:15.783Z,14.04
2023-05-16T11:11:49.388Z,14.41
2023-05-16T11:14:26.364Z,14.89
2023-05-16T11:17:01.217Z,15.30
2023-05-16T11:19:43.082Z,15.07
2023-05-16T11:22:28.373Z,14.53
2023-05-16T11:25:04.385Z,14.59
2023-05-16T11:27:31.198Z,14.25
2023-05-16T11:30:13.717Z,14.28
2023-05-16T11:32:42.894Z,14.09
2023-05-16T11:35:14.990Z,13.90
2023-05-16T11:37:42.544Z,13.93
2023-05-16T11:40:12.590Z,13.87
2023-05-16T11:42:42.478Z,13.98
2023-05-16T11:45:15.848Z,14.36
2023-05-16T11:47:44.802Z,14.72
2023-05-16T11:50:14.203Z,14.97
2023-05-16T11:52:44.410Z,15.41
2023-05-16T11:55:11.533Z,15.76
2023-05-16T11:57:42.383Z,15.48
2023-05-16T12:00:21.321Z,15.74
2023-05-16T12:02:51.526Z,16.05
2023-05-16T12:05:20.797Z,15.87
2023-05-16T12:07:47.962Z,15.18
2023-05-16T12:10:16.145Z,15.25
2023-05-16T12:12:45.085Z,15.25
2023-05-16T12:15:12.568Z,15.32
2023-05-16T12:17:41.581Z,15.67
2023-05-16T12:20:16.771Z,15.75
2023-05-16T12:22:45.389Z,15.64
2023-05-16T12:25:28.462Z,15.63
2023-05-16T12:27:57.478Z,15.25
2023-05-16T12:30:25.674Z,15.26
2023-05-16T12:32:55.926Z,14.54
2023-05-16T12:35:23.204Z,13.88
2023-05-16T12:37:52.026Z,13.58
2023-05-16T12:40:20.654Z,13.79
2023-05-16T12:42:52.243Z,13.86
2023-05-16T12:45:19.065Z,13.47
2023-05-16T12:47:47.174Z,13.57
2023-05-16T12:50:17.480Z,13.54
2023-05-16T12:52:49.493Z,13.98
2023-05-16T12:55:20.635Z,14.41
2023-05-16T12:57:48.469Z,14.27
2023-05-16T13:00:18.807Z,14.68
2023-05-16T13:02:46.649Z,14.63
2023-05-16T13:05:13.620Z,14.44
2023-05-16T13:07:40.995Z,14.09
2023-05-16T13:10:10.818Z,13.87
2023-05-16T13:12:41.487Z,13.92
2023-05-16T13:15:10.782Z,14.64
2023-05-16T13:17:39.312Z,14.99
2023-05-16T13:20:10.467Z,14.76
2023-05-16T13:22:37.356Z,15.31
2023-05-16T13:25:04.824Z,14.70
2023-05-16T13:27:32.316Z,14.36
2023-05-16T13:29:59.632Z,13.82
2023-05-16T13:32:26.857Z,13.18
2023-05-16T13:34:54.585Z,13.38
2023-05-16T13:37:21.445Z,13.00
2023-05-16T13:39:48.164Z,12.79
2023-05-16T13:42:16.149Z,12.64
2023-05-16T13:44:43.395Z,12.62
2023-05-16T13:47:10.063Z,12.85
2023-05-16T13:49:37.855Z,13.17
2023-05-16T13:52:05.145Z,13.56
2023-05-16T13:54:32.135Z,13.58
2023-05-16T13:56:59.018Z,13.52
2023-05-16T13:59:44.904Z,13.65
2023-05-16T14:02:12.675Z,12.96
2023-05-16T14:04:40.073Z,13.17
2023-05-16T14:07:07.268Z,13.69
2023-05-16T14:09:35.293Z,13.49
2023-05-16T14:12:05.152Z,12.57
2023-05-16T14:14:32.077Z,12.56
2023-05-16T14:16:59.623Z,13.02
2023-05-16T14:19:26.494Z,13.23
2023-05-16T14:21:53.552Z,13.27
2023-05-16T14:24:20.268Z,13.52
2023-05-16T14:26:46.991Z,13.49
2023-05-16T14:29:13.723Z,13.17
2023-05-16T14:31:41.039Z,12.58
2023-05-16T14:34:08.164Z,12.05
2023-05-16T14:36:35.286Z,11.86
2023-05-16T14:39:02.376Z,11.70
2023-05-16T14:41:29.028Z,11.46
2023-05-16T14:43:56.216Z,11.72
2023-05-16T14:46:22.965Z,12.20
2023-05-16T14:48:51.161Z,12.51
2023-05-16T14:51:18.010Z,12.31
2023-05-16T14:53:46.967Z,12.79
2023-05-16T14:56:13.992Z,12.93
2023-05-16T14:58:40.743Z,12.49
2023-05-16T15:01:08.447Z,12.25
2023-05-16T15:03:53.840Z,12.05
2023-05-16T15:06:22.502Z,11.57
2023-05-16T15:08:50.865Z,11.79
2023-05-16T15:11:17.785Z,12.17
2023-05-16T15:13:44.495Z,12.39
2023-05-16T15:16:11.428Z,12.26
2023-05-16T15:18:38.309Z,11.58
2023-05-16T15:21:05.028Z,11.27
2023-05-16T15:23:31.886Z,11.23
2023-05-16T15:25:58.603Z,11.18
2023-05-16T15:28:25.496Z,10.68
2023-05-16T15:30:52.348Z,10.29
2023-05-16T15:33:19.019Z,10.04
2023-05-16T15:35:46.239Z,9.95
2023-05-16T15:38:12.985Z,9.62
2023-05-16T15:40:39.688Z,9.41
2023-05-16T15:43:06.535Z,9.57
2023-05-16T15:45:33.862Z,10.47
2023-05-16T15:48:00.928Z,10.96
2023-05-16T15:50:27.709Z,11.48
2023-05-16T15:52:54.410Z,11.79
2023-05-16T15:55:22.071Z,11.66
2023-05-16T15:57:48.780Z,11.15
2023-05-16T16:00:16.063Z,10.85
2023-05-16T16:02:45.166Z,10.63
2023-05-16T16:05:14.005Z,10.48
2023-05-16T16:07:40.717Z,10.73
2023-05-16T16:10:08.214Z,11.00
2023-05-16T16:12:35.203Z,11.45
2023-05-16T16:15:02.558Z,11.55
2023-05-16T16:17:29.417Z,11.35
2023-05-16T16:19:57.103Z,11.03
2023-05-16T16:22:23.902Z,10.88
2023-05-16T16:24:50.719Z,11.08
2023-05-16T16:27:17.433Z,11.18
2023-05-16T16:29:44.128Z,11.10
2023-05-16T16:32:10.949Z,11.55
2023-05-16T16:34:39.858Z,11.47
2023-05-16T16:37:10.481Z,11.04
2023-05-16T16:39:37.371Z,10.79
2023-05-16T16:42:04.265Z,10.54
2023-05-16T16:44:31.104Z,10.32
2023-05-16T16:46:57.840Z,10.30
2023-05-16T16:49:24.841Z,10.20
2023-05-16T16:51:51.929Z,10.17
2023-05-16T16:54:18.967Z,10.12
2023-05-16T16:56:47.586Z,9.88
2023-05-16T16:59:14.610Z,9.64
2023-05-16T17:01:41.759Z,9.44
2023-05-16T17:04:09.039Z,9.26
2023-05-16T17:06:36.112Z,9.17
2023-05-16T17:09:05.199Z,9.01
2023-05-16T17:11:36.034Z,8.88
2023-05-16T17:14:05.886Z,8.66
2023-05-16T17:16:34.062Z,8.49
2023-05-16T17:19:01.697Z,8.54
2023-05-16T17:21:29.577Z,8.34
2023-05-16T17:23:58.295Z,8.43
2023-05-16T17:26:25.203Z,8.46
2023-05-16T17:28:53.333Z,8.48
2023-05-16T17:31:20.446Z,8.42
2023-05-16T17:33:47.158Z,8.36
2023-05-16T17:36:14.163Z,8.22
2023-05-16T17:38:41.237Z,8.21
2023-05-16T17:41:08.608Z,8.20
2023-05-16T17:43:35.527Z,8.22
2023-05-16T17:46:02.378Z,8.23
2023-05-16T17:48:30.700Z,8.21
2023-05-16T17:50:57.570Z,8.18
2023-05-16T17:53:25.204Z,8.17
2023-05-16T17:55:52.112Z,8.16
2023-05-16T17:58:19.004Z,8.16
2023-05-16T18:00:49.067Z,8.19
2023-05-16T18:03:15.983Z,8.25
2023-05-16T18:08:12.962Z,8.31
2023-05-16T18:10:50.532Z,8.32
2023-05-16T18:13:18.789Z,8.05
2023-05-16T18:15:45.860Z,8.30
2023-05-16T18:18:12.961Z,8.31
2023-05-16T18:20:40.891Z,8.24
2023-05-16T18:23:10.647Z,8.24
2023-05-16T18:25:38.755Z,8.18
2023-05-16T18:28:05.757Z,8.14
2023-05-16T18:30:32.888Z,8.08
2023-05-16T18:33:00.097Z,7.67
2023-05-16T18:35:28.691Z,7.94
2023-05-16T18:37:55.891Z,7.88
2023-05-16T18:40:22.928Z,7.81
2023-05-16T18:42:49.886Z,7.77
2023-05-16T18:45:17.056Z,7.73
2023-05-16T18:47:44.395Z,7.68
2023-05-16T18:50:11.735Z,7.67
2023-05-16T18:52:40.660Z,7.78
2023-05-16T18:55:09.652Z,7.80
2023-05-16T18:57:36.563Z,7.84
2023-05-16T19:00:04.470Z,7.86
2023-05-16T19:02:41.423Z,7.88
2023-05-16T19:05:10.519Z,7.91
2023-05-16T19:07:38.717Z,7.93
2023-05-16T19:10:06.390Z,7.95
2023-05-16T19:12:33.490Z,7.99
2023-05-16T19:15:00.625Z,7.98
2023-05-16T19:17:27.499Z,7.80
2023-05-16T19:19:54.261Z,7.99
2023-05-16T19:22:21.083Z,7.95
2023-05-16T19:24:48.051Z,7.94
2023-05-16T19:27:14.883Z,7.90
2023-05-16T19:29:41.798Z,7.61
2023-05-16T19:32:08.702Z,7.78
2023-05-16T19:34:35.826Z,7.74
2023-05-16T19:37:03.545Z,7.70
2023-05-16T19:39:32.222Z,7.68
2023-05-16T19:42:07.069Z,7.70
2023-05-16T19:44:35.114Z,7.78
2023-05-16T19:47:02.265Z,7.84
2023-05-16T19:49:31.793Z,7.84
2023-05-16T19:51:59.506Z,7.86
2023-05-16T19:54:26.408Z,7.81
2023-05-16T19:56:54.144Z,7.73
2023-05-16T19:59:22.595Z,7.63
2023-05-16T20:01:49.177Z,7.59
2023-05-16T20:04:16.099Z,7.60
2023-05-16T20:06:42.820Z,7.65
2023-05-16T20:09:11.290Z,7.63
2023-05-16T20:11:40.051Z,7.58
2023-05-16T20:14:06.701Z,7.54
2023-05-16T20:16:33.415Z,7.53
2023-05-16T20:19:00.325Z,7.55
2023-05-16T20:21:27.044Z,7.52
2023-05-16T20:23:54.697Z,7.54
2023-05-16T20:26:21.524Z,7.56
2023-05-16T20:28:48.158Z,7.65
2023-05-16T20:31:14.901Z,7.81
2023-05-16T20:33:41.596Z,7.86
2023-05-16T20:36:09.535Z,7.94
2023-05-16T20:38:36.244Z,7.99
2023-05-16T20:41:04.681Z,8.08
2023-05-16T20:43:31.374Z,8.20
2023-05-16T20:45:58.452Z,8.26
2023-05-16T20:48:25.331Z,8.42
2023-05-16T20:50:52.203Z,8.51
2023-05-16T20:53:18.938Z,8.55
2023-05-16T20:55:46.021Z,8.62
2023-05-16T20:58:12.728Z,8.65
2023-05-16T21:00:45.619Z,8.72
2023-05-16T21:03:12.598Z,8.75
2023-05-16T21:05:42.284Z,8.74
2023-05-16T21:08:11.764Z,8.76
2023-05-16T21:10:48.076Z,8.80
2023-05-16T21:13:14.968Z,8.54
2023-05-16T21:15:42.786Z,8.84
2023-05-16T21:18:10.496Z,8.67
2023-05-16T21:20:37.251Z,8.78
2023-05-16T21:23:04.929Z,8.84
2023-05-16T21:25:36.352Z,8.89
2023-05-16T21:28:03.718Z,8.92
2023-05-16T21:30:31.618Z,8.95
2023-05-16T21:32:58.395Z,8.97
2023-05-16T21:35:25.404Z,9.00
2023-05-16T21:37:52.125Z,9.01
2023-05-16T21:40:24.836Z,9.01
2023-05-16T21:42:54.994Z,8.87
2023-05-16T21:45:23.506Z,8.73
2023-05-16T21:47:58.779Z,9.01
2023-05-16T21:50:25.642Z,9.02
2023-05-16T21:52:52.325Z,9.04
2023-05-16T21:55:18.972Z,9.13
2023-05-16T21:57:45.627Z,9.17
2023-05-16T22:00:12.990Z,9.16
2023-05-16T22:02:39.829Z,9.11
2023-05-16T22:05:07.605Z,9.07
2023-05-16T22:07:35.318Z,9.07
2023-05-16T22:10:03.160Z,9.05
2023-05-16T22:12:30.006Z,9.06
2023-05-16T22:14:57.366Z,9.03
2023-05-16T22:17:24.057Z,8.99
2023-05-16T22:19:50.834Z,9.00
2023-05-16T22:22:17.729Z,9.01
2023-05-16T22:24:44.466Z,9.06
2023-05-16T22:27:12.817Z,9.05
2023-05-16T22:29:41.642Z,9.06
2023-05-16T22:32:12.462Z,9.06
2023-05-16T22:34:39.817Z,9.03
2023-05-16T22:37:08.124Z,9.06
2023-05-16T22:39:35.156Z,9.07
2023-05-16T22:42:02.059Z,8.98
2023-05-16T22:44:31.323Z,9.04
2023-05-16T22:46:59.195Z,9.02
2023-05-16T22:49:25.881Z,8.98
2023-05-16T22:51:52.721Z,8.99
2023-05-16T22:54:20.389Z,8.96
2023-05-16T22:56:47.240Z,8.61
2023-05-16T22:59:14.840Z,8.91
2023-05-16T23:01:41.514Z,8.94
2023-05-16T23:04:08.579Z,8.91
2023-05-16T23:06:36.643Z,8.92
2023-05-16T23:09:04.763Z,8.91
2023-05-16T23:11:32.256Z,8.92
2023-05-16T23:13:58.903Z,8.91
2023-05-16T23:16:25.880Z,8.92
2023-05-16T23:18:52.826Z,8.94
2023-05-16T23:21:19.560Z,8.89
2023-05-16T23:23:47.305Z,8.86
2023-05-16T23:26:14.892Z,8.85
2023-05-16T23:28:41.576Z,8.80
2023-05-16T23:31:08.373Z,8.78
2023-05-16T23:33:35.076Z,8.76
2023-05-16T23:36:06.387Z,8.50
2023-05-16T23:38:33.059Z,8.77
2023-05-16T23:40:59.705Z,8.79
2023-05-16T23:43:26.759Z,8.82
2023-05-16T23:45:53.397Z,8.79
2023-05-16T23:48:20.114Z,8.83
2023-05-16T23:50:46.953Z,8.84
2023-05-16T23:53:13.849Z,8.86
2023-05-16T23:55:40.498Z,8.89
2023-05-16T23:58:07.461Z,8.89
